Terminal Aerodrome Forecast
Issued by NWS Omaha/Valley, NE

Home | Current Version | Previous Version | Text Only | Print | Product List | Glossary Off
Versions: 1 2 3 4 5 6 7 8 9 10 11 12 13 14 15 16

000
FTUS43 KOAX 100520
TAFOFK
TAF
KOFK 100520Z 1006/1106 12005KT P6SM SCT030 BKN090
     FM101100 11004KT 5SM -SN OVC030
      TEMPO 1012/1015 2SM -SN OVC015
     FM101700 13013G20KT P6SM OVC040
     FM102000 14012KT P6SM OVC025
     FM110000 13009KT P6SM OVC035=

USA.gov is the U.S. government's official web portal to all federal, state and local government web resources and services.